createdAt,value
2022-08-29T00:00:28.124Z,1.60
2022-08-29T00:02:56.902Z,1.80
2022-08-29T00:05:29.307Z,1.60
2022-08-29T00:07:57.789Z,1.70
2022-08-29T00:10:24.625Z,2.00
2022-08-29T00:12:51.687Z,1.53
2022-08-29T00:15:19.473Z,2.00
2022-08-29T00:17:46.802Z,2.00
2022-08-29T00:20:17.865Z,2.33
2022-08-29T00:22:44.751Z,1.80
2022-08-29T00:25:13.128Z,2.37
2022-08-29T00:27:40.119Z,2.10
2022-08-29T00:30:10.600Z,1.83
2022-08-29T00:32:37.323Z,1.90
2022-08-29T00:35:06.460Z,1.80
2022-08-29T00:37:33.205Z,2.10
2022-08-29T00:40:00.102Z,2.00
2022-08-29T00:42:28.080Z,1.93
2022-08-29T00:44:54.893Z,2.30
2022-08-29T00:47:26.749Z,2.13
2022-08-29T00:49:56.111Z,1.87
2022-08-29T00:52:48.079Z,2.17
2022-08-29T00:55:21.441Z,1.80
2022-08-29T00:57:51.708Z,1.90
2022-08-29T01:00:18.618Z,2.10
2022-08-29T01:02:45.850Z,2.20
2022-08-29T01:05:15.243Z,2.00
2022-08-29T01:07:43.353Z,2.10
2022-08-29T01:10:31.328Z,1.97
2022-08-29T01:12:58.049Z,2.30
2022-08-29T01:15:25.478Z,2.10
2022-08-29T01:17:52.734Z,2.33
2022-08-29T01:20:34.224Z,2.23
2022-08-29T01:23:15.477Z,2.20
2022-08-29T01:25:47.800Z,2.30
2022-08-29T01:28:25.471Z,2.30
2022-08-29T01:31:15.830Z,2.13
2022-08-29T01:34:02.912Z,2.00
2022-08-29T01:36:34.964Z,2.47
2022-08-29T01:39:01.718Z,3.07
2022-08-29T01:41:28.695Z,2.80
2022-08-29T01:43:56.969Z,3.03
2022-08-29T01:46:28.383Z,2.80
2022-08-29T01:48:55.349Z,3.27
2022-08-29T01:51:22.022Z,3.23
2022-08-29T01:53:48.630Z,2.33
2022-08-29T01:56:21.342Z,2.87
2022-08-29T01:58:49.803Z,2.47
2022-08-29T02:01:19.934Z,2.63
2022-08-29T02:03:48.991Z,3.00
2022-08-29T02:06:15.674Z,2.73
2022-08-29T02:08:44.134Z,2.40
2022-08-29T02:11:12.926Z,2.73
2022-08-29T02:13:42.595Z,2.70
2022-08-29T02:16:09.964Z,2.73
2022-08-29T02:18:36.656Z,2.73
2022-08-29T02:21:04.511Z,2.87
2022-08-29T02:23:31.446Z,3.40
2022-08-29T02:25:58.595Z,3.77
2022-08-29T02:28:25.228Z,3.90
2022-08-29T02:30:54.086Z,3.37
2022-08-29T02:33:24.213Z,3.33
2022-08-29T02:35:50.877Z,3.60
2022-08-29T02:38:18.157Z,3.50
2022-08-29T02:40:45.703Z,3.63
2022-08-29T02:43:12.738Z,3.60
2022-08-29T02:45:41.379Z,3.03
2022-08-29T02:48:08.708Z,3.90
2022-08-29T02:50:36.029Z,3.80
2022-08-29T02:53:02.616Z,4.40
2022-08-29T02:55:29.482Z,3.80
2022-08-29T02:57:56.101Z,3.60
2022-08-29T03:00:26.085Z,3.60
2022-08-29T03:02:55.447Z,3.63
2022-08-29T03:05:24.953Z,4.30
2022-08-29T03:07:52.574Z,4.03
2022-08-29T03:10:20.114Z,4.40
2022-08-29T03:12:47.718Z,4.90
2022-08-29T03:15:15.040Z,4.10
2022-08-29T03:17:41.629Z,3.90
2022-08-29T03:20:10.141Z,4.80
2022-08-29T03:22:37.610Z,3.80
2022-08-29T03:25:06.375Z,5.33
2022-08-29T03:27:33.973Z,4.10
2022-08-29T03:30:01.229Z,4.00
2022-08-29T03:32:29.571Z,4.60
2022-08-29T03:34:56.150Z,4.40
2022-08-29T03:37:22.782Z,5.40
2022-08-29T03:39:51.078Z,4.50
2022-08-29T03:42:17.687Z,4.57
2022-08-29T03:44:44.351Z,4.70
2022-08-29T03:47:11.318Z,4.63
2022-08-29T03:49:38.242Z,5.37
2022-08-29T03:52:05.741Z,5.13
2022-08-29T03:54:33.248Z,4.33
2022-08-29T03:56:59.848Z,5.17
2022-08-29T03:59:27.360Z,4.90
2022-08-29T04:01:54.074Z,5.93
2022-08-29T04:04:39.810Z,5.00
2022-08-29T04:07:07.611Z,4.83
2022-08-29T04:09:34.491Z,5.50
2022-08-29T04:12:01.342Z,5.37
2022-08-29T04:14:29.405Z,5.60
2022-08-29T04:16:56.002Z,5.10
2022-08-29T04:19:22.599Z,5.73
2022-08-29T04:21:49.213Z,5.63
2022-08-29T04:24:16.453Z,5.67
2022-08-29T04:26:43.089Z,5.20
2022-08-29T04:29:12.020Z,5.70
2022-08-29T04:31:40.778Z,5.50
2022-08-29T04:34:09.887Z,6.13
2022-08-29T04:36:39.511Z,6.47
2022-08-29T04:39:06.642Z,6.10
2022-08-29T04:41:33.482Z,6.30
2022-08-29T04:44:01.101Z,6.10
2022-08-29T04:46:28.030Z,6.83
2022-08-29T04:48:54.897Z,6.27
2022-08-29T04:51:22.479Z,6.63
2022-08-29T04:53:51.462Z,6.97
2022-08-29T04:56:18.765Z,6.57
2022-08-29T04:58:46.103Z,6.63
2022-08-29T05:01:15.562Z,6.53
2022-08-29T05:03:42.430Z,6.80
2022-08-29T05:06:11.923Z,6.70
2022-08-29T05:08:40.391Z,6.47
2022-08-29T05:11:11.339Z,6.43
2022-08-29T05:13:38.019Z,6.17
2022-08-29T05:16:09.538Z,6.60
2022-08-29T05:18:36.324Z,7.40
2022-08-29T05:21:03.354Z,7.83
2022-08-29T05:23:30.194Z,7.13
2022-08-29T05:25:59.246Z,7.40
2022-08-29T05:28:26.889Z,7.50
2022-08-29T05:30:53.701Z,6.83
2022-08-29T05:33:20.752Z,7.13
2022-08-29T05:35:47.622Z,6.57
2022-08-29T05:38:15.150Z,6.90
2022-08-29T05:40:42.502Z,6.17
2022-08-29T05:43:12.549Z,5.97
2022-08-29T05:45:40.467Z,5.77
2022-08-29T05:48:09.374Z,6.30
2022-08-29T05:50:43.653Z,4.87
2022-08-29T05:53:12.882Z,5.83
2022-08-29T05:55:41.205Z,4.77
2022-08-29T05:58:08.204Z,4.57
2022-08-29T06:00:37.088Z,3.90
2022-08-29T06:03:04.873Z,3.80
2022-08-29T06:05:31.927Z,4.40
2022-08-29T06:07:58.849Z,4.10
2022-08-29T06:10:25.578Z,3.87
2022-08-29T06:12:52.209Z,4.13
2022-08-29T06:15:18.982Z,3.37
2022-08-29T06:17:45.645Z,3.93
2022-08-29T06:20:13.078Z,3.70
2022-08-29T06:22:40.644Z,3.50
2022-08-29T06:25:28.032Z,3.50
2022-08-29T06:27:54.946Z,3.40
2022-08-29T06:30:21.614Z,3.53
2022-08-29T06:32:48.476Z,3.67
2022-08-29T06:35:15.193Z,3.13
2022-08-29T06:37:42.456Z,3.47
2022-08-29T06:40:09.642Z,3.43
2022-08-29T06:42:36.315Z,4.33
2022-08-29T06:45:03.227Z,4.07
2022-08-29T06:47:29.857Z,4.30
2022-08-29T06:49:56.439Z,3.47
2022-08-29T06:52:23.085Z,3.70
2022-08-29T06:54:49.674Z,4.90
2022-08-29T06:57:16.286Z,5.27
2022-08-29T06:59:43.015Z,5.77
2022-08-29T07:02:09.641Z,5.50
2022-08-29T07:04:36.347Z,5.03
2022-08-29T07:07:02.985Z,4.50
2022-08-29T07:09:32.211Z,4.57
2022-08-29T07:11:58.838Z,4.50
2022-08-29T07:14:25.646Z,4.17
2022-08-29T07:16:52.297Z,3.57
2022-08-29T07:19:18.925Z,3.23
2022-08-29T07:21:45.517Z,3.60
2022-08-29T07:24:12.199Z,3.67
2022-08-29T07:26:42.735Z,2.90
2022-08-29T07:29:17.466Z,2.70
2022-08-29T07:31:44.898Z,2.60
2022-08-29T07:34:11.853Z,3.27
2022-08-29T07:36:38.802Z,2.67
2022-08-29T07:39:09.677Z,2.87
2022-08-29T07:41:38.961Z,2.60
2022-08-29T07:44:05.710Z,2.90
2022-08-29T07:46:32.473Z,2.47
2022-08-29T07:48:59.882Z,2.63
2022-08-29T07:51:27.509Z,2.60
2022-08-29T07:53:54.937Z,2.70
2022-08-29T07:56:33.434Z,2.70
2022-08-29T07:59:03.858Z,3.03
2022-08-29T08:01:30.616Z,2.60
2022-08-29T08:03:58.262Z,2.77
2022-08-29T08:06:27.174Z,2.53
2022-08-29T08:08:55.961Z,2.60
2022-08-29T08:11:24.999Z,2.15
2022-08-29T08:13:55.839Z,2.60
2022-08-29T08:16:25.000Z,2.33
2022-08-29T08:18:52.201Z,2.15
2022-08-29T08:21:19.261Z,1.70
2022-08-29T08:23:45.918Z,2.20
2022-08-29T08:26:13.760Z,2.10
2022-08-29T08:28:41.585Z,2.72
2022-08-29T08:31:10.067Z,2.10
2022-08-29T08:33:41.115Z,2.80
2022-08-29T08:36:30.299Z,2.78
2022-08-29T08:38:59.779Z,2.92
2022-08-29T08:41:49.442Z,2.28
2022-08-29T08:44:21.964Z,2.47
2022-08-29T08:46:52.418Z,2.47
2022-08-29T08:49:33.737Z,2.53
2022-08-29T08:52:05.921Z,3.13
2022-08-29T08:54:41.144Z,2.42
2022-08-29T08:57:11.371Z,2.92
2022-08-29T08:59:43.271Z,2.78
2022-08-29T09:02:41.127Z,3.15
2022-08-29T09:05:19.412Z,2.00
2022-08-29T09:08:08.894Z,2.45
2022-08-29T09:11:01.307Z,2.55
2022-08-29T09:13:52.146Z,2.03
2022-08-29T09:16:29.536Z,2.33
2022-08-29T09:19:01.701Z,2.20
2022-08-29T09:21:44.665Z,1.98
2022-08-29T09:24:20.862Z,2.08
2022-08-29T09:26:47.475Z,1.95
2022-08-29T09:29:14.208Z,2.00
2022-08-29T09:31:41.160Z,2.35
2022-08-29T09:34:13.284Z,2.05
2022-08-29T09:36:52.370Z,1.92
2022-08-29T09:39:32.461Z,1.75
2022-08-29T09:42:22.942Z,2.13
2022-08-29T09:44:55.874Z,1.92
2022-08-29T09:47:32.383Z,2.15
2022-08-29T09:50:09.034Z,2.05
2022-08-29T09:52:39.247Z,1.95
2022-08-29T09:55:23.694Z,1.95
2022-08-29T09:57:55.542Z,2.40
2022-08-29T10:00:36.465Z,2.08
2022-08-29T10:03:06.331Z,1.77
2022-08-29T10:05:45.161Z,1.70
2022-08-29T10:08:27.822Z,1.95
2022-08-29T10:10:59.476Z,1.80
2022-08-29T10:13:43.385Z,2.20
2022-08-29T10:16:38.009Z,1.85
2022-08-29T10:19:16.079Z,1.85
2022-08-29T10:21:51.582Z,2.30
2022-08-29T10:24:30.994Z,1.88
2022-08-29T10:27:24.954Z,2.80
2022-08-29T10:30:11.071Z,2.60
2022-08-29T10:33:15.921Z,2.75
2022-08-29T10:35:54.728Z,2.42
2022-08-29T10:38:39.682Z,2.50
2022-08-29T10:41:24.493Z,5.30
2022-08-29T10:44:04.489Z,2.72
2022-08-29T10:47:03.482Z,2.65
2022-08-29T10:49:44.831Z,2.70
2022-08-29T10:52:26.485Z,2.15
2022-08-29T10:55:18.726Z,2.40
2022-08-29T10:57:57.444Z,2.67
2022-08-29T11:00:32.486Z,2.20
2022-08-29T11:03:13.779Z,2.92
2022-08-29T11:05:49.340Z,2.92
2022-08-29T11:08:30.555Z,2.83
2022-08-29T11:10:57.340Z,2.40
2022-08-29T11:13:33.538Z,2.53
2022-08-29T11:16:15.258Z,2.95
2022-08-29T11:18:51.309Z,2.70
2022-08-29T11:21:42.966Z,3.03
2022-08-29T11:24:15.669Z,2.70
2022-08-29T11:26:52.151Z,2.55
2022-08-29T11:29:21.565Z,2.78
2022-08-29T11:32:21.150Z,2.90
2022-08-29T11:35:05.847Z,2.67
2022-08-29T11:37:41.257Z,2.28
2022-08-29T11:40:20.009Z,2.63
2022-08-29T11:43:12.451Z,3.13
2022-08-29T11:45:42.833Z,2.65
2022-08-29T11:48:38.561Z,2.80
2022-08-29T11:51:36.523Z,3.40
2022-08-29T11:54:25.323Z,3.72
2022-08-29T11:57:12.263Z,2.95
2022-08-29T11:59:56.928Z,2.85
2022-08-29T12:02:32.305Z,3.22
2022-08-29T12:05:27.885Z,2.75
2022-08-29T12:08:33.634Z,3.08
2022-08-29T12:10:59.935Z,2.78
2022-08-29T12:13:48.294Z,2.70
2022-08-29T12:16:18.810Z,2.58
2022-08-29T12:18:52.079Z,2.63
2022-08-29T12:21:37.036Z,2.95
2022-08-29T12:24:06.965Z,2.50
2022-08-29T12:26:45.634Z,2.67
2022-08-29T12:29:43.831Z,2.92
2022-08-29T12:32:48.539Z,3.15
2022-08-29T12:35:34.848Z,2.65
2022-08-29T12:38:33.753Z,3.33
2022-08-29T12:41:31.452Z,2.85
2022-08-29T12:44:01.406Z,2.75
2022-08-29T12:46:40.506Z,2.75
2022-08-29T12:49:29.487Z,2.95
2022-08-29T12:52:02.811Z,2.90
2022-08-29T12:54:34.108Z,2.67
2022-08-29T12:57:02.620Z,2.80
2022-08-29T12:59:29.808Z,2.63
2022-08-29T13:01:58.599Z,2.80
2022-08-29T13:04:32.352Z,3.00
2022-08-29T13:07:05.404Z,2.53
2022-08-29T13:09:41.938Z,2.47
2022-08-29T13:12:21.065Z,2.50
2022-08-29T13:15:05.484Z,2.30
2022-08-29T13:17:39.707Z,2.40
2022-08-29T13:20:45.632Z,2.60
2022-08-29T13:23:12.191Z,3.03
2022-08-29T13:25:44.850Z,2.50
2022-08-29T13:28:39.727Z,2.70
2022-08-29T13:31:28.272Z,4.43
2022-08-29T13:33:54.989Z,2.85
2022-08-29T13:36:27.517Z,2.92
2022-08-29T13:39:19.196Z,2.67
2022-08-29T13:41:58.988Z,2.60
2022-08-29T13:44:33.209Z,3.15
2022-08-29T13:47:04.257Z,3.00
2022-08-29T13:49:35.497Z,2.65
2022-08-29T13:52:02.982Z,3.05
2022-08-29T13:54:31.497Z,2.78
2022-08-29T13:57:00.350Z,2.40
2022-08-29T13:59:31.985Z,3.35
2022-08-29T14:02:11.311Z,2.90
2022-08-29T14:04:40.815Z,3.17
2022-08-29T14:07:28.068Z,2.92
2022-08-29T14:09:54.934Z,2.30
2022-08-29T14:12:33.025Z,2.50
2022-08-29T14:15:11.042Z,2.50
2022-08-29T14:17:40.858Z,2.80
2022-08-29T14:20:09.718Z,2.50
2022-08-29T14:22:37.352Z,2.55
2022-08-29T14:25:06.049Z,3.25
2022-08-29T14:27:32.698Z,2.88
2022-08-29T14:29:59.318Z,3.00
2022-08-29T14:32:26.893Z,2.47
2022-08-29T14:34:53.830Z,3.25
2022-08-29T14:37:20.793Z,2.75
2022-08-29T14:39:49.742Z,3.50
2022-08-29T14:42:17.290Z,2.53
2022-08-29T14:44:43.979Z,2.80
2022-08-29T14:47:10.712Z,2.85
2022-08-29T14:49:37.424Z,2.75
2022-08-29T14:52:05.239Z,2.92
2022-08-29T14:54:32.094Z,2.88
2022-08-29T14:56:58.934Z,2.72
2022-08-29T14:59:26.042Z,2.78
2022-08-29T15:01:54.773Z,2.95
2022-08-29T15:04:37.160Z,2.50
2022-08-29T15:07:06.337Z,3.50
2022-08-29T15:09:33.339Z,2.83
2022-08-29T15:12:00.132Z,2.92
2022-08-29T15:14:26.758Z,2.80
2022-08-29T15:16:53.375Z,3.20
2022-08-29T15:22:08.423Z,2.95
2022-08-29T15:24:35.141Z,3.25
2022-08-29T15:27:02.237Z,3.13
2022-08-29T15:29:29.309Z,3.05
2022-08-29T15:31:58.817Z,2.20
2022-08-29T15:34:27.014Z,2.60
2022-08-29T15:36:55.236Z,2.50
2022-08-29T15:39:22.063Z,2.95
2022-08-29T15:41:48.842Z,2.65
2022-08-29T15:44:15.715Z,2.50
2022-08-29T15:46:50.585Z,2.97
2022-08-29T15:49:19.231Z,2.58
2022-08-29T15:51:46.229Z,2.75
2022-08-29T15:54:13.654Z,2.67
2022-08-29T15:56:40.728Z,2.65
2022-08-29T15:59:09.664Z,2.65
2022-08-29T16:01:42.598Z,3.10
2022-08-29T16:04:10.507Z,2.60
2022-08-29T16:06:38.363Z,2.95
2022-08-29T16:09:09.139Z,2.83
2022-08-29T16:11:44.325Z,2.60
2022-08-29T16:16:58.538Z,2.55
2022-08-29T16:19:25.538Z,2.70
2022-08-29T16:21:52.645Z,2.53
2022-08-29T16:24:21.615Z,2.58
2022-08-29T16:26:48.311Z,4.35
2022-08-29T16:29:14.954Z,2.20
2022-08-29T16:31:51.665Z,2.47
2022-08-29T16:34:18.564Z,2.50
2022-08-29T16:36:45.219Z,2.90
2022-08-29T16:39:13.216Z,2.42
2022-08-29T16:41:39.978Z,2.03
2022-08-29T16:44:08.095Z,2.80
2022-08-29T16:46:34.723Z,2.30
2022-08-29T16:49:01.461Z,2.70
2022-08-29T16:51:28.523Z,1.95
2022-08-29T16:53:57.302Z,2.67
2022-08-29T16:56:23.965Z,2.92
2022-08-29T16:59:03.935Z,2.40
2022-08-29T17:01:32.645Z,3.10
2022-08-29T17:04:01.452Z,2.30
2022-08-29T17:06:29.527Z,2.88
2022-08-29T17:08:56.800Z,2.05
2022-08-29T17:11:23.687Z,2.35
2022-08-29T17:13:50.626Z,2.13
2022-08-29T17:16:17.499Z,2.60
2022-08-29T17:18:44.700Z,2.25
2022-08-29T17:21:11.985Z,2.33
2022-08-29T17:23:38.894Z,2.15
2022-08-29T17:26:10.744Z,2.60
2022-08-29T17:28:39.438Z,2.17
2022-08-29T17:31:06.925Z,2.25
2022-08-29T17:33:33.999Z,2.28
2022-08-29T17:36:00.969Z,2.40
2022-08-29T17:38:27.747Z,2.33
2022-08-29T17:40:59.609Z,2.35
2022-08-29T17:43:27.565Z,2.17
2022-08-29T17:45:55.170Z,2.28
2022-08-29T17:48:22.470Z,2.35
2022-08-29T17:50:49.934Z,2.35
2022-08-29T17:53:18.466Z,2.45
2022-08-29T17:55:45.918Z,2.42
2022-08-29T17:58:13.735Z,2.30
2022-08-29T18:00:40.394Z,2.67
2022-08-29T18:03:07.002Z,1.93
2022-08-29T18:05:33.625Z,2.40
2022-08-29T18:08:00.345Z,2.50
2022-08-29T18:10:27.036Z,2.50
2022-08-29T18:12:53.888Z,2.73
2022-08-29T18:15:20.544Z,2.53
2022-08-29T18:17:51.274Z,2.53
2022-08-29T18:20:19.567Z,2.87
2022-08-29T18:22:48.390Z,2.43
2022-08-29T18:25:15.609Z,2.47
2022-08-29T18:27:50.179Z,2.40
2022-08-29T18:30:17.176Z,2.60
2022-08-29T18:32:43.871Z,2.77
2022-08-29T18:35:10.915Z,2.73
2022-08-29T18:37:37.715Z,2.63
2022-08-29T18:40:08.160Z,2.43
2022-08-29T18:42:40.839Z,3.00
2022-08-29T18:45:09.108Z,2.57
2022-08-29T18:47:35.824Z,2.80
2022-08-29T18:50:25.052Z,3.03
2022-08-29T18:52:52.699Z,2.80
2022-08-29T18:55:19.801Z,2.33
2022-08-29T18:57:48.032Z,2.53
2022-08-29T19:00:15.633Z,2.63
2022-08-29T19:02:42.487Z,2.80
2022-08-29T19:05:09.391Z,2.60
2022-08-29T19:07:36.090Z,2.70
2022-08-29T19:10:04.595Z,3.13
2022-08-29T19:12:31.290Z,3.17
2022-08-29T19:14:57.934Z,2.73
2022-08-29T19:17:24.536Z,3.60
2022-08-29T19:20:10.422Z,2.73
2022-08-29T19:22:38.063Z,3.20
2022-08-29T19:25:06.031Z,3.00
2022-08-29T19:27:43.278Z,2.77
2022-08-29T19:30:13.162Z,2.77
2022-08-29T19:32:39.839Z,2.97
2022-08-29T19:35:07.730Z,3.10
2022-08-29T19:37:34.536Z,3.20
2022-08-29T19:40:02.023Z,3.40
2022-08-29T19:42:28.693Z,2.97
2022-08-29T19:44:55.358Z,3.83
2022-08-29T19:47:23.478Z,3.40
2022-08-29T19:49:50.660Z,3.03
2022-08-29T19:52:17.546Z,2.80
2022-08-29T19:54:44.375Z,3.00
2022-08-29T19:57:13.330Z,3.00
2022-08-29T19:59:42.325Z,2.73
2022-08-29T20:02:10.779Z,2.90
2022-08-29T20:04:38.254Z,2.87
2022-08-29T20:07:05.464Z,3.50
2022-08-29T20:09:32.437Z,2.43
2022-08-29T20:12:00.569Z,3.03
2022-08-29T20:14:27.393Z,2.90
2022-08-29T20:16:54.093Z,2.53
2022-08-29T20:19:21.367Z,2.83
2022-08-29T20:21:49.871Z,2.83
2022-08-29T20:24:17.432Z,2.97
2022-08-29T20:26:45.240Z,3.10
2022-08-29T20:29:12.418Z,3.63
2022-08-29T20:31:40.080Z,3.80
2022-08-29T20:34:06.741Z,2.60
2022-08-29T20:36:52.005Z,2.83
2022-08-29T20:39:21.440Z,3.60
2022-08-29T20:41:57.300Z,3.27
2022-08-29T20:44:30.240Z,3.33
2022-08-29T20:46:59.782Z,2.60
2022-08-29T20:49:27.056Z,3.23
2022-08-29T20:51:53.746Z,3.60
2022-08-29T20:54:23.596Z,3.10
2022-08-29T20:56:51.078Z,2.40
2022-08-29T20:59:18.507Z,2.63
2022-08-29T21:01:45.311Z,3.27
2022-08-29T21:04:31.409Z,3.10
2022-08-29T21:07:01.364Z,3.07
2022-08-29T21:09:28.876Z,2.83
2022-08-29T21:11:56.186Z,3.30
2022-08-29T21:14:23.814Z,3.20
2022-08-29T21:16:52.147Z,3.97
2022-08-29T21:19:19.577Z,3.00
2022-08-29T21:21:46.383Z,3.40
2022-08-29T21:24:13.064Z,3.47
2022-08-29T21:26:40.075Z,3.30
2022-08-29T21:29:07.651Z,3.20
2022-08-29T21:31:35.405Z,2.77
2022-08-29T21:34:06.833Z,3.17
2022-08-29T21:36:35.908Z,3.10
2022-08-29T21:39:03.829Z,2.93
2022-08-29T21:41:31.827Z,3.63
2022-08-29T21:43:58.755Z,2.97
2022-08-29T21:46:31.471Z,3.07
2022-08-29T21:49:00.877Z,3.00
2022-08-29T21:51:28.540Z,2.80
2022-08-29T21:53:56.642Z,3.03
2022-08-29T21:56:25.303Z,3.07
2022-08-29T21:58:54.477Z,2.77
2022-08-29T22:01:23.877Z,3.30
2022-08-29T22:03:51.641Z,3.30
2022-08-29T22:06:18.461Z,3.93
2022-08-29T22:08:46.107Z,3.17
2022-08-29T22:11:19.211Z,3.23
2022-08-29T22:13:45.866Z,3.83
2022-08-29T22:16:30.697Z,3.33
2022-08-29T22:19:09.814Z,3.53
2022-08-29T22:21:42.236Z,3.10
2022-08-29T22:24:09.912Z,3.23
2022-08-29T22:26:37.522Z,3.10
2022-08-29T22:29:05.712Z,3.20
2022-08-29T22:31:32.573Z,3.83
2022-08-29T22:34:00.214Z,3.83
2022-08-29T22:36:26.946Z,3.60
2022-08-29T22:38:56.525Z,3.13
2022-08-29T22:41:24.360Z,3.10
2022-08-29T22:44:16.445Z,3.00
2022-08-29T22:46:43.300Z,2.70
2022-08-29T22:49:09.978Z,3.10
2022-08-29T22:51:36.615Z,3.40
2022-08-29T22:54:22.009Z,3.37
2022-08-29T22:56:48.590Z,3.10
2022-08-29T22:59:15.807Z,3.17
2022-08-29T23:01:44.133Z,3.30
2022-08-29T23:04:11.669Z,3.23
2022-08-29T23:06:38.443Z,3.70
2022-08-29T23:09:05.621Z,3.50
2022-08-29T23:11:33.091Z,3.57
2022-08-29T23:13:59.879Z,3.73
2022-08-29T23:16:26.691Z,2.80
2022-08-29T23:18:53.360Z,3.00
2022-08-29T23:21:22.959Z,3.27
2022-08-29T23:23:50.630Z,4.40
2022-08-29T23:26:17.836Z,3.57
2022-08-29T23:28:44.477Z,3.63
2022-08-29T23:31:11.245Z,3.50
2022-08-29T23:33:38.222Z,3.57
2022-08-29T23:36:04.990Z,3.17
2022-08-29T23:38:31.918Z,3.40
2022-08-29T23:40:59.433Z,2.93
2022-08-29T23:43:27.942Z,3.07
2022-08-29T23:45:55.615Z,3.20
2022-08-29T23:48:25.929Z,3.17
2022-08-29T23:50:53.669Z,3.27
2022-08-29T23:53:22.301Z,3.60
2022-08-29T23:55:49.787Z,2.87
2022-08-29T23:58:17.983Z,3.50
